sensor_id;sensor_type;location;lat;lon;timestamp;P1;durP1;ratioP1;P2;durP2;ratioP2
19869;SDS011;10097;50.862;4.696;2024-01-30T00:01:42;11.47;;;3.90;;
19869;SDS011;10097;50.862;4.696;2024-01-30T00:04:08;9.27;;;3.30;;
19869;SDS011;10097;50.862;4.696;2024-01-30T00:06:34;7.97;;;3.77;;
19869;SDS011;10097;50.862;4.696;2024-01-30T00:08:59;8.37;;;3.63;;
19869;SDS011;10097;50.862;4.696;2024-01-30T00:11:25;8.10;;;3.90;;
19869;SDS011;10097;50.862;4.696;2024-01-30T00:13:51;13.23;;;3.67;;
19869;SDS011;10097;50.862;4.696;2024-01-30T00:16:21;10.10;;;3.63;;
19869;SDS011;10097;50.862;4.696;2024-01-30T00:18:47;9.70;;;3.83;;
19869;SDS011;10097;50.862;4.696;2024-01-30T00:21:13;7.57;;;3.43;;
19869;SDS011;10097;50.862;4.696;2024-01-30T00:23:39;9.27;;;3.77;;
19869;SDS011;10097;50.862;4.696;2024-01-30T00:26:04;7.73;;;3.33;;
19869;SDS011;10097;50.862;4.696;2024-01-30T00:28:31;9.33;;;3.93;;
19869;SDS011;10097;50.862;4.696;2024-01-30T00:30:56;9.27;;;3.87;;
19869;SDS011;10097;50.862;4.696;2024-01-30T00:33:22;10.43;;;4.07;;
19869;SDS011;10097;50.862;4.696;2024-01-30T00:35:48;7.57;;;3.30;;
19869;SDS011;10097;50.862;4.696;2024-01-30T00:38:13;10.33;;;3.97;;
19869;SDS011;10097;50.862;4.696;2024-01-30T00:40:39;10.10;;;3.67;;
19869;SDS011;10097;50.862;4.696;2024-01-30T00:43:06;9.10;;;3.90;;
19869;SDS011;10097;50.862;4.696;2024-01-30T00:45:31;7.33;;;3.43;;
19869;SDS011;10097;50.862;4.696;2024-01-30T00:47:57;7.70;;;3.67;;
19869;SDS011;10097;50.862;4.696;2024-01-30T00:50:23;8.50;;;3.57;;
19869;SDS011;10097;50.862;4.696;2024-01-30T00:52:48;7.60;;;3.43;;
19869;SDS011;10097;50.862;4.696;2024-01-30T00:55:14;11.03;;;3.50;;
19869;SDS011;10097;50.862;4.696;2024-01-30T00:57:40;9.60;;;3.50;;
19869;SDS011;10097;50.862;4.696;2024-01-30T01:00:06;9.57;;;3.57;;
19869;SDS011;10097;50.862;4.696;2024-01-30T01:02:34;8.30;;;3.47;;
19869;SDS011;10097;50.862;4.696;2024-01-30T01:05:00;9.23;;;3.80;;
19869;SDS011;10097;50.862;4.696;2024-01-30T01:07:26;12.07;;;3.83;;
19869;SDS011;10097;50.862;4.696;2024-01-30T01:09:52;9.30;;;3.87;;
19869;SDS011;10097;50.862;4.696;2024-01-30T01:12:18;9.03;;;3.60;;
19869;SDS011;10097;50.862;4.696;2024-01-30T01:14:43;11.80;;;3.27;;
19869;SDS011;10097;50.862;4.696;2024-01-30T01:17:09;11.60;;;3.90;;
19869;SDS011;10097;50.862;4.696;2024-01-30T01:19:35;10.73;;;3.87;;
19869;SDS011;10097;50.862;4.696;2024-01-30T01:22:00;8.70;;;3.50;;
19869;SDS011;10097;50.862;4.696;2024-01-30T01:24:26;10.17;;;3.10;;
19869;SDS011;10097;50.862;4.696;2024-01-30T01:26:52;9.57;;;3.83;;
19869;SDS011;10097;50.862;4.696;2024-01-30T01:29:17;10.70;;;3.67;;
19869;SDS011;10097;50.862;4.696;2024-01-30T01:31:43;9.83;;;3.33;;
19869;SDS011;10097;50.862;4.696;2024-01-30T01:34:12;8.13;;;3.63;;
19869;SDS011;10097;50.862;4.696;2024-01-30T01:36:39;10.23;;;3.87;;
19869;SDS011;10097;50.862;4.696;2024-01-30T01:39:05;8.70;;;3.30;;
19869;SDS011;10097;50.862;4.696;2024-01-30T01:41:30;8.53;;;3.30;;
19869;SDS011;10097;50.862;4.696;2024-01-30T01:43:59;9.67;;;3.73;;
19869;SDS011;10097;50.862;4.696;2024-01-30T01:46:26;9.50;;;4.00;;
19869;SDS011;10097;50.862;4.696;2024-01-30T01:48:54;7.60;;;3.50;;
19869;SDS011;10097;50.862;4.696;2024-01-30T01:51:21;8.17;;;3.40;;
19869;SDS011;10097;50.862;4.696;2024-01-30T01:53:49;8.63;;;3.50;;
19869;SDS011;10097;50.862;4.696;2024-01-30T01:56:16;9.33;;;4.00;;
19869;SDS011;10097;50.862;4.696;2024-01-30T01:58:41;9.47;;;3.70;;
19869;SDS011;10097;50.862;4.696;2024-01-30T02:01:09;10.07;;;3.47;;
19869;SDS011;10097;50.862;4.696;2024-01-30T02:03:37;8.77;;;3.97;;
19869;SDS011;10097;50.862;4.696;2024-01-30T02:06:03;7.37;;;3.70;;
19869;SDS011;10097;50.862;4.696;2024-01-30T02:08:29;9.43;;;3.70;;
19869;SDS011;10097;50.862;4.696;2024-01-30T02:10:55;7.77;;;3.27;;
19869;SDS011;10097;50.862;4.696;2024-01-30T02:13:21;9.57;;;3.50;;
19869;SDS011;10097;50.862;4.696;2024-01-30T02:15:51;9.43;;;3.43;;
19869;SDS011;10097;50.862;4.696;2024-01-30T02:18:17;9.87;;;3.83;;
19869;SDS011;10097;50.862;4.696;2024-01-30T02:20:43;9.90;;;4.20;;
19869;SDS011;10097;50.862;4.696;2024-01-30T02:23:09;8.67;;;3.57;;
19869;SDS011;10097;50.862;4.696;2024-01-30T02:25:40;6.83;;;3.20;;
19869;SDS011;10097;50.862;4.696;2024-01-30T02:28:12;8.03;;;3.67;;
19869;SDS011;10097;50.862;4.696;2024-01-30T02:30:38;8.23;;;3.40;;
19869;SDS011;10097;50.862;4.696;2024-01-30T02:33:04;9.03;;;3.60;;
19869;SDS011;10097;50.862;4.696;2024-01-30T02:35:30;9.40;;;3.47;;
19869;SDS011;10097;50.862;4.696;2024-01-30T02:37:56;9.83;;;3.47;;
19869;SDS011;10097;50.862;4.696;2024-01-30T02:40:21;10.60;;;3.67;;
19869;SDS011;10097;50.862;4.696;2024-01-30T02:42:47;10.30;;;3.70;;
19869;SDS011;10097;50.862;4.696;2024-01-30T02:45:13;7.70;;;3.10;;
19869;SDS011;10097;50.862;4.696;2024-01-30T02:47:39;11.33;;;3.77;;
19869;SDS011;10097;50.862;4.696;2024-01-30T02:50:05;13.00;;;4.17;;
19869;SDS011;10097;50.862;4.696;2024-01-30T02:52:31;10.90;;;4.70;;
19869;SDS011;10097;50.862;4.696;2024-01-30T02:54:57;10.00;;;4.30;;
19869;SDS011;10097;50.862;4.696;2024-01-30T02:57:22;12.87;;;4.97;;
19869;SDS011;10097;50.862;4.696;2024-01-30T02:59:48;11.50;;;5.10;;
19869;SDS011;10097;50.862;4.696;2024-01-30T03:02:14;12.63;;;5.00;;
19869;SDS011;10097;50.862;4.696;2024-01-30T03:04:42;14.43;;;5.00;;
19869;SDS011;10097;50.862;4.696;2024-01-30T03:07:08;13.87;;;5.20;;
19869;SDS011;10097;50.862;4.696;2024-01-30T03:09:34;12.03;;;4.67;;
19869;SDS011;10097;50.862;4.696;2024-01-30T03:12:00;14.57;;;4.80;;
19869;SDS011;10097;50.862;4.696;2024-01-30T03:14:26;12.00;;;4.97;;
19869;SDS011;10097;50.862;4.696;2024-01-30T03:16:51;13.63;;;4.57;;
19869;SDS011;10097;50.862;4.696;2024-01-30T03:19:17;12.87;;;4.77;;
19869;SDS011;10097;50.862;4.696;2024-01-30T03:21:43;10.20;;;4.03;;
19869;SDS011;10097;50.862;4.696;2024-01-30T03:24:09;9.83;;;4.63;;
19869;SDS011;10097;50.862;4.696;2024-01-30T03:26:35;12.03;;;4.27;;
19869;SDS011;10097;50.862;4.696;2024-01-30T03:29:00;10.60;;;4.03;;
19869;SDS011;10097;50.862;4.696;2024-01-30T03:31:26;12.20;;;3.97;;
19869;SDS011;10097;50.862;4.696;2024-01-30T03:33:52;12.20;;;4.10;;
19869;SDS011;10097;50.862;4.696;2024-01-30T03:36:18;10.90;;;3.97;;
19869;SDS011;10097;50.862;4.696;2024-01-30T03:38:43;10.83;;;3.87;;
19869;SDS011;10097;50.862;4.696;2024-01-30T03:41:09;11.97;;;4.30;;
19869;SDS011;10097;50.862;4.696;2024-01-30T03:43:35;8.33;;;3.30;;
19869;SDS011;10097;50.862;4.696;2024-01-30T03:46:01;12.30;;;4.07;;
19869;SDS011;10097;50.862;4.696;2024-01-30T03:48:28;14.37;;;4.60;;
19869;SDS011;10097;50.862;4.696;2024-01-30T03:50:54;10.67;;;4.03;;
19869;SDS011;10097;50.862;4.696;2024-01-30T03:53:19;12.57;;;4.30;;
19869;SDS011;10097;50.862;4.696;2024-01-30T03:55:51;11.77;;;4.03;;
19869;SDS011;10097;50.862;4.696;2024-01-30T03:58:17;14.20;;;4.03;;
19869;SDS011;10097;50.862;4.696;2024-01-30T04:00:42;11.87;;;3.93;;
19869;SDS011;10097;50.862;4.696;2024-01-30T04:03:08;10.67;;;4.17;;
19869;SDS011;10097;50.862;4.696;2024-01-30T04:05:34;11.07;;;4.50;;
19869;SDS011;10097;50.862;4.696;2024-01-30T04:07:59;12.17;;;4.17;;
19869;SDS011;10097;50.862;4.696;2024-01-30T04:10:25;10.90;;;4.10;;
19869;SDS011;10097;50.862;4.696;2024-01-30T04:12:51;14.40;;;4.30;;
19869;SDS011;10097;50.862;4.696;2024-01-30T04:15:17;11.13;;;3.90;;
19869;SDS011;10097;50.862;4.696;2024-01-30T04:17:43;10.57;;;4.60;;
19869;SDS011;10097;50.862;4.696;2024-01-30T04:20:18;12.47;;;4.40;;
19869;SDS011;10097;50.862;4.696;2024-01-30T04:22:44;11.63;;;4.67;;
19869;SDS011;10097;50.862;4.696;2024-01-30T04:25:11;9.47;;;3.53;;
19869;SDS011;10097;50.862;4.696;2024-01-30T04:27:37;13.70;;;4.37;;
19869;SDS011;10097;50.862;4.696;2024-01-30T04:30:02;11.83;;;3.70;;
19869;SDS011;10097;50.862;4.696;2024-01-30T04:32:28;11.80;;;4.00;;
19869;SDS011;10097;50.862;4.696;2024-01-30T04:34:54;11.27;;;4.17;;
19869;SDS011;10097;50.862;4.696;2024-01-30T04:37:20;10.87;;;4.17;;
19869;SDS011;10097;50.862;4.696;2024-01-30T04:39:46;14.17;;;4.10;;
19869;SDS011;10097;50.862;4.696;2024-01-30T04:42:11;11.00;;;3.90;;
19869;SDS011;10097;50.862;4.696;2024-01-30T04:44:37;11.87;;;4.40;;
19869;SDS011;10097;50.862;4.696;2024-01-30T04:47:02;9.50;;;4.50;;
19869;SDS011;10097;50.862;4.696;2024-01-30T04:49:30;10.27;;;4.33;;
19869;SDS011;10097;50.862;4.696;2024-01-30T04:51:55;12.70;;;4.43;;
19869;SDS011;10097;50.862;4.696;2024-01-30T04:54:21;12.37;;;4.37;;
19869;SDS011;10097;50.862;4.696;2024-01-30T04:56:47;10.97;;;4.57;;
19869;SDS011;10097;50.862;4.696;2024-01-30T04:59:12;8.73;;;3.77;;
19869;SDS011;10097;50.862;4.696;2024-01-30T05:01:38;11.43;;;4.57;;
19869;SDS011;10097;50.862;4.696;2024-01-30T05:04:04;9.83;;;4.30;;
19869;SDS011;10097;50.862;4.696;2024-01-30T05:06:32;11.27;;;3.83;;
19869;SDS011;10097;50.862;4.696;2024-01-30T05:08:58;11.27;;;4.57;;
19869;SDS011;10097;50.862;4.696;2024-01-30T05:11:24;10.17;;;4.43;;
19869;SDS011;10097;50.862;4.696;2024-01-30T05:13:49;12.37;;;4.53;;
19869;SDS011;10097;50.862;4.696;2024-01-30T05:16:15;11.80;;;4.83;;
19869;SDS011;10097;50.862;4.696;2024-01-30T05:18:40;12.43;;;4.60;;
19869;SDS011;10097;50.862;4.696;2024-01-30T05:21:06;11.17;;;4.17;;
19869;SDS011;10097;50.862;4.696;2024-01-30T05:23:32;10.43;;;4.63;;
19869;SDS011;10097;50.862;4.696;2024-01-30T05:25:57;13.27;;;4.40;;
19869;SDS011;10097;50.862;4.696;2024-01-30T05:28:25;10.00;;;4.20;;
19869;SDS011;10097;50.862;4.696;2024-01-30T05:30:51;8.97;;;3.67;;
19869;SDS011;10097;50.862;4.696;2024-01-30T05:33:17;10.00;;;4.17;;
19869;SDS011;10097;50.862;4.696;2024-01-30T05:35:42;13.13;;;4.27;;
19869;SDS011;10097;50.862;4.696;2024-01-30T05:38:08;13.10;;;4.60;;
19869;SDS011;10097;50.862;4.696;2024-01-30T05:40:34;7.57;;;3.50;;
19869;SDS011;10097;50.862;4.696;2024-01-30T05:42:59;12.50;;;4.10;;
19869;SDS011;10097;50.862;4.696;2024-01-30T05:45:26;9.20;;;3.83;;
19869;SDS011;10097;50.862;4.696;2024-01-30T05:47:52;11.03;;;4.30;;
19869;SDS011;10097;50.862;4.696;2024-01-30T05:50:18;15.90;;;4.20;;
19869;SDS011;10097;50.862;4.696;2024-01-30T05:52:44;17.50;;;4.03;;
19869;SDS011;10097;50.862;4.696;2024-01-30T05:55:11;14.87;;;4.50;;
19869;SDS011;10097;50.862;4.696;2024-01-30T05:57:37;9.17;;;3.90;;
19869;SDS011;10097;50.862;4.696;2024-01-30T06:00:04;9.87;;;3.87;;
19869;SDS011;10097;50.862;4.696;2024-01-30T06:02:30;10.97;;;4.27;;
19869;SDS011;10097;50.862;4.696;2024-01-30T06:04:56;8.03;;;3.90;;
19869;SDS011;10097;50.862;4.696;2024-01-30T06:07:22;10.97;;;4.27;;
19869;SDS011;10097;50.862;4.696;2024-01-30T06:09:47;9.07;;;4.00;;
19869;SDS011;10097;50.862;4.696;2024-01-30T06:12:13;9.37;;;3.90;;
19869;SDS011;10097;50.862;4.696;2024-01-30T06:14:39;12.17;;;4.20;;
19869;SDS011;10097;50.862;4.696;2024-01-30T06:17:12;10.07;;;4.47;;
19869;SDS011;10097;50.862;4.696;2024-01-30T06:19:38;9.33;;;4.10;;
19869;SDS011;10097;50.862;4.696;2024-01-30T06:22:04;11.60;;;4.17;;
19869;SDS011;10097;50.862;4.696;2024-01-30T06:24:30;11.30;;;4.10;;
19869;SDS011;10097;50.862;4.696;2024-01-30T06:26:55;15.17;;;4.63;;
19869;SDS011;10097;50.862;4.696;2024-01-30T06:29:21;11.90;;;4.03;;
19869;SDS011;10097;50.862;4.696;2024-01-30T06:31:49;10.33;;;4.47;;
19869;SDS011;10097;50.862;4.696;2024-01-30T06:34:15;17.27;;;4.97;;
19869;SDS011;10097;50.862;4.696;2024-01-30T06:36:41;15.37;;;4.67;;
19869;SDS011;10097;50.862;4.696;2024-01-30T06:39:06;11.80;;;4.37;;
19869;SDS011;10097;50.862;4.696;2024-01-30T06:41:32;12.40;;;4.77;;
19869;SDS011;10097;50.862;4.696;2024-01-30T06:43:58;12.73;;;4.77;;
19869;SDS011;10097;50.862;4.696;2024-01-30T06:46:24;12.90;;;5.03;;
19869;SDS011;10097;50.862;4.696;2024-01-30T06:48:50;11.33;;;5.20;;
19869;SDS011;10097;50.862;4.696;2024-01-30T06:51:15;11.43;;;4.80;;
19869;SDS011;10097;50.862;4.696;2024-01-30T06:53:41;12.73;;;5.03;;
19869;SDS011;10097;50.862;4.696;2024-01-30T06:56:07;14.30;;;5.37;;
19869;SDS011;10097;50.862;4.696;2024-01-30T06:58:33;13.53;;;5.43;;
19869;SDS011;10097;50.862;4.696;2024-01-30T07:00:58;15.10;;;5.33;;
19869;SDS011;10097;50.862;4.696;2024-01-30T07:03:24;14.87;;;5.47;;
19869;SDS011;10097;50.862;4.696;2024-01-30T07:05:50;17.07;;;5.77;;
19869;SDS011;10097;50.862;4.696;2024-01-30T07:08:16;14.90;;;5.30;;
19869;SDS011;10097;50.862;4.696;2024-01-30T07:10:45;18.00;;;6.40;;
19869;SDS011;10097;50.862;4.696;2024-01-30T07:13:10;15.13;;;5.57;;
19869;SDS011;10097;50.862;4.696;2024-01-30T07:15:36;14.67;;;6.13;;
19869;SDS011;10097;50.862;4.696;2024-01-30T07:18:03;14.53;;;6.00;;
19869;SDS011;10097;50.862;4.696;2024-01-30T07:20:29;19.40;;;6.30;;
19869;SDS011;10097;50.862;4.696;2024-01-30T07:22:57;16.13;;;6.07;;
19869;SDS011;10097;50.862;4.696;2024-01-30T07:25:23;17.50;;;6.10;;
19869;SDS011;10097;50.862;4.696;2024-01-30T07:27:51;13.77;;;5.73;;
19869;SDS011;10097;50.862;4.696;2024-01-30T07:30:18;15.57;;;6.03;;
19869;SDS011;10097;50.862;4.696;2024-01-30T07:32:44;15.13;;;5.47;;
19869;SDS011;10097;50.862;4.696;2024-01-30T07:35:11;17.67;;;5.87;;
19869;SDS011;10097;50.862;4.696;2024-01-30T07:37:37;17.23;;;5.37;;
19869;SDS011;10097;50.862;4.696;2024-01-30T07:40:03;13.63;;;5.23;;
19869;SDS011;10097;50.862;4.696;2024-01-30T07:42:29;15.97;;;5.73;;
19869;SDS011;10097;50.862;4.696;2024-01-30T07:44:55;12.23;;;5.30;;
19869;SDS011;10097;50.862;4.696;2024-01-30T07:47:20;14.50;;;5.43;;
19869;SDS011;10097;50.862;4.696;2024-01-30T07:49:46;15.80;;;5.40;;
19869;SDS011;10097;50.862;4.696;2024-01-30T07:52:12;15.30;;;4.77;;
19869;SDS011;10097;50.862;4.696;2024-01-30T07:54:47;12.87;;;5.73;;
19869;SDS011;10097;50.862;4.696;2024-01-30T07:57:13;17.40;;;5.83;;
19869;SDS011;10097;50.862;4.696;2024-01-30T07:59:39;15.03;;;5.60;;
19869;SDS011;10097;50.862;4.696;2024-01-30T08:02:06;13.77;;;5.30;;
19869;SDS011;10097;50.862;4.696;2024-01-30T08:04:33;14.67;;;4.80;;
19869;SDS011;10097;50.862;4.696;2024-01-30T08:06:58;15.83;;;4.73;;
19869;SDS011;10097;50.862;4.696;2024-01-30T08:09:24;14.27;;;5.30;;
19869;SDS011;10097;50.862;4.696;2024-01-30T08:11:49;10.63;;;4.63;;
19869;SDS011;10097;50.862;4.696;2024-01-30T08:14:15;11.70;;;4.70;;
19869;SDS011;10097;50.862;4.696;2024-01-30T08:16:41;10.17;;;4.80;;
19869;SDS011;10097;50.862;4.696;2024-01-30T08:19:06;14.93;;;4.90;;
19869;SDS011;10097;50.862;4.696;2024-01-30T08:21:32;13.83;;;4.93;;
19869;SDS011;10097;50.862;4.696;2024-01-30T08:24:02;10.00;;;4.47;;
19869;SDS011;10097;50.862;4.696;2024-01-30T08:26:30;9.73;;;4.60;;
19869;SDS011;10097;50.862;4.696;2024-01-30T08:28:59;11.13;;;4.87;;
19869;SDS011;10097;50.862;4.696;2024-01-30T08:31:24;9.70;;;4.30;;
19869;SDS011;10097;50.862;4.696;2024-01-30T08:33:50;12.40;;;4.53;;
19869;SDS011;10097;50.862;4.696;2024-01-30T08:36:16;12.17;;;4.40;;
19869;SDS011;10097;50.862;4.696;2024-01-30T08:38:42;14.83;;;5.20;;
19869;SDS011;10097;50.862;4.696;2024-01-30T08:41:08;11.07;;;4.20;;
19869;SDS011;10097;50.862;4.696;2024-01-30T08:43:34;15.97;;;5.33;;
19869;SDS011;10097;50.862;4.696;2024-01-30T08:46:00;8.37;;;4.17;;
19869;SDS011;10097;50.862;4.696;2024-01-30T08:48:26;11.67;;;4.37;;
19869;SDS011;10097;50.862;4.696;2024-01-30T08:50:51;11.47;;;4.40;;
19869;SDS011;10097;50.862;4.696;2024-01-30T08:53:17;16.00;;;5.00;;
19869;SDS011;10097;50.862;4.696;2024-01-30T08:55:43;10.43;;;4.50;;
19869;SDS011;10097;50.862;4.696;2024-01-30T08:58:09;14.17;;;5.23;;
19869;SDS011;10097;50.862;4.696;2024-01-30T09:00:35;10.23;;;4.10;;
19869;SDS011;10097;50.862;4.696;2024-01-30T09:03:01;14.13;;;4.70;;
19869;SDS011;10097;50.862;4.696;2024-01-30T09:05:27;13.03;;;4.27;;
19869;SDS011;10097;50.862;4.696;2024-01-30T09:07:52;11.93;;;4.33;;
19869;SDS011;10097;50.862;4.696;2024-01-30T09:10:18;12.07;;;4.70;;
19869;SDS011;10097;50.862;4.696;2024-01-30T09:12:45;10.67;;;4.70;;
19869;SDS011;10097;50.862;4.696;2024-01-30T09:15:11;11.57;;;4.30;;
19869;SDS011;10097;50.862;4.696;2024-01-30T09:17:37;12.53;;;4.77;;
19869;SDS011;10097;50.862;4.696;2024-01-30T09:20:03;13.07;;;5.00;;
19869;SDS011;10097;50.862;4.696;2024-01-30T09:22:29;14.93;;;5.20;;
19869;SDS011;10097;50.862;4.696;2024-01-30T09:24:54;12.00;;;4.37;;
19869;SDS011;10097;50.862;4.696;2024-01-30T09:27:20;12.60;;;4.70;;
19869;SDS011;10097;50.862;4.696;2024-01-30T09:29:45;15.07;;;5.17;;
19869;SDS011;10097;50.862;4.696;2024-01-30T09:32:11;15.33;;;5.13;;
19869;SDS011;10097;50.862;4.696;2024-01-30T09:34:37;12.97;;;4.43;;
19869;SDS011;10097;50.862;4.696;2024-01-30T09:37:04;12.13;;;5.47;;
19869;SDS011;10097;50.862;4.696;2024-01-30T09:39:30;11.83;;;4.70;;
19869;SDS011;10097;50.862;4.696;2024-01-30T09:41:57;15.73;;;5.23;;
19869;SDS011;10097;50.862;4.696;2024-01-30T09:44:30;16.00;;;5.57;;
19869;SDS011;10097;50.862;4.696;2024-01-30T09:46:56;9.43;;;4.23;;
19869;SDS011;10097;50.862;4.696;2024-01-30T09:49:28;15.03;;;4.87;;
19869;SDS011;10097;50.862;4.696;2024-01-30T09:51:58;14.03;;;5.83;;
19869;SDS011;10097;50.862;4.696;2024-01-30T09:54:23;11.30;;;5.03;;
19869;SDS011;10097;50.862;4.696;2024-01-30T09:56:49;13.03;;;5.60;;
19869;SDS011;10097;50.862;4.696;2024-01-30T09:59:15;19.27;;;4.43;;
19869;SDS011;10097;50.862;4.696;2024-01-30T10:01:40;10.83;;;4.13;;
19869;SDS011;10097;50.862;4.696;2024-01-30T10:04:07;12.27;;;4.80;;
19869;SDS011;10097;50.862;4.696;2024-01-30T10:06:33;10.03;;;4.40;;
19869;SDS011;10097;50.862;4.696;2024-01-30T10:08:59;15.57;;;5.07;;
19869;SDS011;10097;50.862;4.696;2024-01-30T10:11:25;12.07;;;4.90;;
19869;SDS011;10097;50.862;4.696;2024-01-30T10:13:51;17.63;;;5.50;;
19869;SDS011;10097;50.862;4.696;2024-01-30T10:16:16;14.77;;;5.23;;
19869;SDS011;10097;50.862;4.696;2024-01-30T10:18:42;13.07;;;5.27;;
19869;SDS011;10097;50.862;4.696;2024-01-30T10:21:09;15.00;;;5.73;;
19869;SDS011;10097;50.862;4.696;2024-01-30T10:23:35;13.73;;;5.43;;
19869;SDS011;10097;50.862;4.696;2024-01-30T10:26:05;14.63;;;5.07;;
19869;SDS011;10097;50.862;4.696;2024-01-30T10:28:33;15.07;;;5.53;;
19869;SDS011;10097;50.862;4.696;2024-01-30T10:31:01;14.20;;;6.00;;
19869;SDS011;10097;50.862;4.696;2024-01-30T10:33:29;13.07;;;5.27;;
19869;SDS011;10097;50.862;4.696;2024-01-30T10:36:04;14.67;;;5.37;;
19869;SDS011;10097;50.862;4.696;2024-01-30T10:38:31;15.97;;;5.93;;
19869;SDS011;10097;50.862;4.696;2024-01-30T10:41:01;17.20;;;6.00;;
19869;SDS011;10097;50.862;4.696;2024-01-30T10:43:35;16.57;;;6.27;;
19869;SDS011;10097;50.862;4.696;2024-01-30T10:46:15;17.47;;;6.17;;
19869;SDS011;10097;50.862;4.696;2024-01-30T10:48:58;14.33;;;6.30;;
19869;SDS011;10097;50.862;4.696;2024-01-30T10:51:26;15.43;;;6.60;;
19869;SDS011;10097;50.862;4.696;2024-01-30T10:53:52;15.70;;;6.63;;
19869;SDS011;10097;50.862;4.696;2024-01-30T10:56:21;21.53;;;6.53;;
19869;SDS011;10097;50.862;4.696;2024-01-30T10:58:51;14.13;;;6.07;;
19869;SDS011;10097;50.862;4.696;2024-01-30T11:01:18;13.57;;;6.57;;
19869;SDS011;10097;50.862;4.696;2024-01-30T11:03:47;15.90;;;7.20;;
19869;SDS011;10097;50.862;4.696;2024-01-30T11:06:23;18.97;;;7.10;;
19869;SDS011;10097;50.862;4.696;2024-01-30T11:09:02;15.43;;;6.53;;
19869;SDS011;10097;50.862;4.696;2024-01-30T11:11:29;14.97;;;6.47;;
19869;SDS011;10097;50.862;4.696;2024-01-30T11:13:55;13.90;;;5.80;;
19869;SDS011;10097;50.862;4.696;2024-01-30T11:16:20;15.90;;;5.50;;
19869;SDS011;10097;50.862;4.696;2024-01-30T11:18:49;19.20;;;5.30;;
19869;SDS011;10097;50.862;4.696;2024-01-30T11:21:16;17.77;;;5.17;;
19869;SDS011;10097;50.862;4.696;2024-01-30T11:23:42;12.17;;;5.13;;
19869;SDS011;10097;50.862;4.696;2024-01-30T11:26:10;12.03;;;4.87;;
19869;SDS011;10097;50.862;4.696;2024-01-30T11:28:36;11.63;;;4.70;;
19869;SDS011;10097;50.862;4.696;2024-01-30T11:31:03;17.70;;;5.33;;
19869;SDS011;10097;50.862;4.696;2024-01-30T11:33:30;12.97;;;4.43;;
19869;SDS011;10097;50.862;4.696;2024-01-30T11:35:59;18.07;;;5.50;;
19869;SDS011;10097;50.862;4.696;2024-01-30T11:38:26;13.85;;;5.40;;
19869;SDS011;10097;50.862;4.696;2024-01-30T11:40:53;12.17;;;4.27;;
19869;SDS011;10097;50.862;4.696;2024-01-30T11:43:20;12.13;;;4.20;;
19869;SDS011;10097;50.862;4.696;2024-01-30T11:45:46;12.80;;;3.90;;
19869;SDS011;10097;50.862;4.696;2024-01-30T11:48:12;11.73;;;3.67;;
19869;SDS011;10097;50.862;4.696;2024-01-30T11:50:38;14.83;;;3.30;;
19869;SDS011;10097;50.862;4.696;2024-01-30T11:53:05;11.60;;;3.00;;
19869;SDS011;10097;50.862;4.696;2024-01-30T11:55:31;11.90;;;2.90;;
19869;SDS011;10097;50.862;4.696;2024-01-30T11:57:57;8.87;;;2.37;;
19869;SDS011;10097;50.862;4.696;2024-01-30T12:00:23;6.80;;;1.83;;
19869;SDS011;10097;50.862;4.696;2024-01-30T12:02:54;8.67;;;2.03;;
19869;SDS011;10097;50.862;4.696;2024-01-30T12:05:24;7.57;;;1.70;;
19869;SDS011;10097;50.862;4.696;2024-01-30T12:07:50;8.63;;;1.60;;
19869;SDS011;10097;50.862;4.696;2024-01-30T12:10:16;6.23;;;1.60;;
19869;SDS011;10097;50.862;4.696;2024-01-30T12:12:46;7.23;;;1.43;;
19869;SDS011;10097;50.862;4.696;2024-01-30T12:15:14;5.00;;;1.30;;
19869;SDS011;10097;50.862;4.696;2024-01-30T12:17:40;7.53;;;1.50;;
19869;SDS011;10097;50.862;4.696;2024-01-30T12:22:36;13.33;;;1.43;;
19869;SDS011;10097;50.862;4.696;2024-01-30T12:25:10;5.27;;;0.97;;
19869;SDS011;10097;50.862;4.696;2024-01-30T12:27:38;4.37;;;0.87;;
19869;SDS011;10097;50.862;4.696;2024-01-30T12:30:07;4.63;;;1.30;;
19869;SDS011;10097;50.862;4.696;2024-01-30T12:32:41;4.63;;;0.87;;
19869;SDS011;10097;50.862;4.696;2024-01-30T12:35:11;3.93;;;0.70;;
19869;SDS011;10097;50.862;4.696;2024-01-30T12:37:38;2.83;;;0.60;;
19869;SDS011;10097;50.862;4.696;2024-01-30T12:40:04;4.10;;;0.60;;
19869;SDS011;10097;50.862;4.696;2024-01-30T12:42:31;5.80;;;0.60;;
19869;SDS011;10097;50.862;4.696;2024-01-30T12:44:57;3.77;;;0.60;;
19869;SDS011;10097;50.862;4.696;2024-01-30T12:47:24;4.00;;;0.40;;
19869;SDS011;10097;50.862;4.696;2024-01-30T12:49:49;1.60;;;0.30;;
19869;SDS011;10097;50.862;4.696;2024-01-30T12:52:18;2.87;;;0.60;;
19869;SDS011;10097;50.862;4.696;2024-01-30T12:54:45;5.00;;;0.60;;
19869;SDS011;10097;50.862;4.696;2024-01-30T12:57:11;3.53;;;0.70;;
19869;SDS011;10097;50.862;4.696;2024-01-30T12:59:37;4.93;;;0.80;;
19869;SDS011;10097;50.862;4.696;2024-01-30T13:02:03;1.37;;;0.30;;
19869;SDS011;10097;50.862;4.696;2024-01-30T13:04:29;2.27;;;0.40;;
19869;SDS011;10097;50.862;4.696;2024-01-30T13:06:55;2.20;;;0.30;;
19869;SDS011;10097;50.862;4.696;2024-01-30T13:09:20;5.50;;;0.87;;
19869;SDS011;10097;50.862;4.696;2024-01-30T13:11:48;3.33;;;0.50;;
19869;SDS011;10097;50.862;4.696;2024-01-30T13:14:15;6.23;;;0.40;;
19869;SDS011;10097;50.862;4.696;2024-01-30T13:16:40;4.63;;;0.83;;
19869;SDS011;10097;50.862;4.696;2024-01-30T13:19:06;2.23;;;0.53;;
19869;SDS011;10097;50.862;4.696;2024-01-30T13:21:32;2.53;;;0.60;;
19869;SDS011;10097;50.862;4.696;2024-01-30T13:23:57;4.00;;;0.50;;
19869;SDS011;10097;50.862;4.696;2024-01-30T13:26:25;2.20;;;0.40;;
19869;SDS011;10097;50.862;4.696;2024-01-30T13:28:51;6.50;;;0.87;;
19869;SDS011;10097;50.862;4.696;2024-01-30T13:31:16;3.33;;;0.50;;
19869;SDS011;10097;50.862;4.696;2024-01-30T13:33:42;6.60;;;1.20;;
19869;SDS011;10097;50.862;4.696;2024-01-30T13:36:09;3.90;;;0.40;;
19869;SDS011;10097;50.862;4.696;2024-01-30T13:38:36;6.17;;;0.60;;
19869;SDS011;10097;50.862;4.696;2024-01-30T13:41:01;3.50;;;0.47;;
19869;SDS011;10097;50.862;4.696;2024-01-30T13:43:27;3.40;;;0.67;;
19869;SDS011;10097;50.862;4.696;2024-01-30T13:45:53;2.83;;;0.87;;
19869;SDS011;10097;50.862;4.696;2024-01-30T13:48:19;4.63;;;0.70;;
19869;SDS011;10097;50.862;4.696;2024-01-30T13:50:45;4.43;;;1.03;;
19869;SDS011;10097;50.862;4.696;2024-01-30T13:53:11;6.50;;;0.90;;
19869;SDS011;10097;50.862;4.696;2024-01-30T13:55:36;6.23;;;1.10;;
19869;SDS011;10097;50.862;4.696;2024-01-30T13:58:04;9.13;;;1.57;;
19869;SDS011;10097;50.862;4.696;2024-01-30T14:00:30;10.23;;;1.30;;
19869;SDS011;10097;50.862;4.696;2024-01-30T14:02:55;5.87;;;1.00;;
19869;SDS011;10097;50.862;4.696;2024-01-30T14:05:23;2.77;;;0.63;;
19869;SDS011;10097;50.862;4.696;2024-01-30T14:07:49;8.03;;;1.30;;
19869;SDS011;10097;50.862;4.696;2024-01-30T14:10:16;5.63;;;1.07;;
19869;SDS011;10097;50.862;4.696;2024-01-30T14:12:42;6.67;;;1.13;;
19869;SDS011;10097;50.862;4.696;2024-01-30T14:15:13;8.20;;;1.00;;
19869;SDS011;10097;50.862;4.696;2024-01-30T14:17:40;5.30;;;1.00;;
19869;SDS011;10097;50.862;4.696;2024-01-30T14:20:06;8.97;;;1.20;;
19869;SDS011;10097;50.862;4.696;2024-01-30T14:22:35;6.43;;;1.27;;
19869;SDS011;10097;50.862;4.696;2024-01-30T14:25:01;6.43;;;1.00;;
19869;SDS011;10097;50.862;4.696;2024-01-30T14:27:30;6.17;;;1.00;;
19869;SDS011;10097;50.862;4.696;2024-01-30T14:29:56;6.40;;;1.00;;
19869;SDS011;10097;50.862;4.696;2024-01-30T14:32:23;5.73;;;0.80;;
19869;SDS011;10097;50.862;4.696;2024-01-30T14:34:49;8.70;;;1.00;;
19869;SDS011;10097;50.862;4.696;2024-01-30T14:37:18;7.80;;;1.30;;